Time;durP1;ratioP1;P1;durP2;ratioP2;P2;SDS_P1;SDS_P2;PMS_P1;PMS_P2;Temp;Humidity;BMP_temperature;BMP_pressure;BME280_temperature;BME280_humidity;BME280_pressure;Samples;Min_cycle;Max_cycle;Signal;HPM_P1;HPM_P2
2023/01/28 00:02:01;;;;;;;1.23;1.23;;;;;-0.50;96379.00;;;;4995738;28;20658;-68
2023/01/28 00:04:29;;;;;;;1.50;1.43;;;;;-0.60;96384.00;;;;4995740;28;20588;-69
2023/01/28 00:06:57;;;;;;;1.10;1.10;;;;;-0.60;96371.00;;;;4995719;28;20202;-68
2023/01/28 00:09:25;;;;;;;2.23;1.77;;;;;-0.60;96378.00;;;;4996415;28;20281;-69
2023/01/28 00:11:52;;;;;;;2.73;1.83;;;;;-0.60;96369.00;;;;4995470;28;20240;-69
2023/01/28 00:14:20;;;;;;;1.00;1.00;;;;;-0.50;96368.00;;;;4995623;28;20319;-70
2023/01/28 00:16:47;;;;;;;1.43;1.33;;;;;-0.50;96366.00;;;;4995538;28;20222;-70
2023/01/28 00:19:15;;;;;;;1.20;1.20;;;;;-0.50;96358.00;;;;4995517;28;20214;-68
2023/01/28 00:21:42;;;;;;;1.80;1.70;;;;;-0.50;96368.00;;;;4995210;28;20245;-70
2023/01/28 00:24:11;;;;;;;1.57;1.47;;;;;-0.50;96368.00;;;;4995158;28;20202;-69
2023/01/28 00:26:38;;;;;;;1.13;1.13;;;;;-0.60;96365.00;;;;4993890;28;20671;-68
2023/01/28 00:29:06;;;;;;;1.47;1.37;;;;;-0.60;96369.00;;;;4995027;28;20231;-69
2023/01/28 00:31:34;;;;;;;1.53;1.43;;;;;-0.40;96374.00;;;;4977787;28;20290;-69
2023/01/28 00:34:01;;;;;;;1.03;1.03;;;;;-0.40;96373.00;;;;4994984;28;20202;-70
2023/01/28 00:36:29;;;;;;;1.10;1.10;;;;;-0.60;96382.00;;;;4994542;28;20221;-68
2023/01/28 00:38:58;;;;;;;1.07;1.07;;;;;-0.50;96373.00;;;;4995180;28;20281;-71
2023/01/28 00:41:29;;;;;;;1.77;1.67;;;;;-0.50;96378.00;;;;4996199;28;20245;-69
2023/01/28 00:43:56;;;;;;;1.87;1.77;;;;;-0.50;96373.00;;;;4994847;28;20642;-70
2023/01/28 00:46:25;;;;;;;2.23;1.40;;;;;-0.60;96364.00;;;;4995493;28;20647;-69
2023/01/28 00:48:53;;;;;;;1.30;1.30;;;;;-0.60;96366.00;;;;4994909;28;20645;-69
2023/01/28 00:51:20;;;;;;;1.63;1.53;;;;;-0.50;96367.00;;;;4995303;28;20257;-69
2023/01/28 00:53:48;;;;;;;1.33;1.23;;;;;-0.50;96368.00;;;;4995176;28;20201;-69
2023/01/28 00:56:18;;;;;;;0.90;0.90;;;;;-0.50;96363.00;;;;4994516;28;20273;-70
2023/01/28 00:58:47;;;;;;;1.03;1.03;;;;;-0.50;96364.00;;;;4994650;28;20214;-69
2023/01/28 01:01:16;;;;;;;1.53;1.43;;;;;-0.50;96363.00;;;;4995234;28;20624;-70
2023/01/28 01:03:44;;;;;;;1.30;1.20;;;;;-0.50;96357.00;;;;4994613;28;20217;-71
2023/01/28 01:06:14;;;;;;;1.40;1.33;;;;;-0.60;96361.00;;;;4994378;28;20197;-69
2023/01/28 01:08:48;;;;;;;1.33;1.27;;;;;-0.50;96362.00;;;;4994848;28;20217;-69
2023/01/28 01:11:16;;;;;;;1.03;1.03;;;;;-0.50;96359.00;;;;4994366;28;20174;-70
2023/01/28 01:13:44;;;;;;;1.53;1.43;;;;;-0.50;96362.00;;;;4994206;28;20193;-69
2023/01/28 01:16:15;;;;;;;1.03;1.03;;;;;-0.50;96367.00;;;;4992783;28;20284;-70
2023/01/28 01:18:43;;;;;;;0.87;0.87;;;;;-0.60;96360.00;;;;4994266;28;20293;-70
2023/01/28 01:21:13;;;;;;;1.70;1.60;;;;;-0.50;96363.00;;;;4994613;28;20201;-69
2023/01/28 01:23:40;;;;;;;1.73;1.63;;;;;-0.50;96372.00;;;;4994103;28;20194;-69
2023/01/28 01:26:08;;;;;;;1.50;1.43;;;;;-0.50;96372.00;;;;4994286;28;20317;-69
2023/01/28 01:28:36;;;;;;;0.90;0.90;;;;;-0.50;96370.00;;;;4994096;28;20225;-69
2023/01/28 01:31:05;;;;;;;1.60;1.50;;;;;-0.60;96366.00;;;;4993996;28;20214;-68
2023/01/28 01:33:34;;;;;;;1.17;1.17;;;;;-0.50;96375.00;;;;4994250;28;20205;-69
2023/01/28 01:36:01;;;;;;;1.20;1.20;;;;;-0.50;96378.00;;;;4994239;28;20226;-68
2023/01/28 01:38:29;;;;;;;0.87;0.87;;;;;-0.50;96367.00;;;;4993899;28;20222;-69
2023/01/28 01:41:00;;;;;;;1.83;1.73;;;;;-0.50;96373.00;;;;4994566;28;20197;-68
2023/01/28 01:43:47;;;;;;;1.17;1.17;;;;;-0.50;96373.00;;;;4993900;28;20198;-69
2023/01/28 01:46:15;;;;;;;1.33;1.23;;;;;-0.50;96378.00;;;;4976474;28;20194;-70
2023/01/28 01:48:44;;;;;;;1.30;1.30;;;;;-0.50;96382.00;;;;4993560;28;20226;-71
2023/01/28 01:51:15;;;;;;;1.47;1.37;;;;;-0.50;96390.00;;;;4994490;28;20198;-69
2023/01/28 01:53:46;;;;;;;1.17;1.13;;;;;-0.60;96383.00;;;;4993967;28;20653;-70
2023/01/28 01:56:17;;;;;;;1.47;1.37;;;;;-0.50;96378.00;;;;4993694;28;20256;-69
2023/01/28 01:58:49;;;;;;;1.10;1.10;;;;;-0.50;96387.00;;;;4993942;28;20214;-69
2023/01/28 02:01:19;;;;;;;1.40;1.30;;;;;-0.50;96386.00;;;;4993850;28;20260;-69
2023/01/28 02:03:55;;;;;;;1.00;1.00;;;;;-0.50;96388.00;;;;4992436;28;20305;-68
2023/01/28 02:06:23;;;;;;;1.27;1.27;;;;;-0.50;96382.00;;;;4993674;28;20182;-68
2023/01/28 02:08:53;;;;;;;1.87;1.77;;;;;-0.50;96382.00;;;;4993725;28;20217;-69
2023/01/28 02:11:21;;;;;;;1.10;1.10;;;;;-0.50;96382.00;;;;4993644;28;20205;-68
2023/01/28 02:13:52;;;;;;;1.10;1.10;;;;;-0.50;96379.00;;;;4993544;28;20202;-68
2023/01/28 02:16:20;;;;;;;1.37;1.37;;;;;-0.50;96377.00;;;;4993523;28;20297;-69
2023/01/28 02:18:49;;;;;;;0.80;0.80;;;;;-0.50;96375.00;;;;4993926;28;20210;-69
2023/01/28 02:21:58;;;;;;;1.67;1.57;;;;;-0.40;96375.00;;;;4993785;28;20257;-68
2023/01/28 02:24:54;;;;;;;2.63;1.17;;;;;-0.50;96383.00;;;;4978712;28;20214;-68
2023/01/28 02:27:29;;;;;;;2.30;1.00;;;;;-0.40;96388.00;;;;4959872;28;20261;-68
2023/01/28 02:30:03;;;;;;;1.80;1.70;;;;;-0.40;96385.00;;;;4993412;28;20194;-68
2023/01/28 02:32:39;;;;;;;1.10;1.10;;;;;-0.50;96383.00;;;;4993683;28;20190;-69
2023/01/28 02:35:12;;;;;;;1.60;1.50;;;;;-0.50;96380.00;;;;4993691;28;20179;-69
2023/01/28 02:37:44;;;;;;;2.30;2.03;;;;;-0.40;96377.00;;;;4993656;28;20207;-69
2023/01/28 02:40:16;;;;;;;1.53;1.43;;;;;-0.50;96376.00;;;;4993354;28;20216;-69
2023/01/28 02:42:44;;;;;;;1.53;1.43;;;;;-0.50;96376.00;;;;4993623;28;20237;-69
2023/01/28 02:45:20;;;;;;;1.00;1.00;;;;;-0.50;96384.00;;;;4993277;28;20199;-70
2023/01/28 02:47:58;;;;;;;2.13;1.57;;;;;-0.40;96386.00;;;;4993802;28;20175;-69
2023/01/28 02:50:34;;;;;;;1.70;0.90;;;;;-0.50;96389.00;;;;4993847;28;20305;-69
2023/01/28 02:56:04;;;;;;;1.00;1.00;;;;;-0.50;96389.00;;;;4993489;28;20557;-70
2023/01/28 02:58:41;;;;;;;1.90;1.80;;;;;-0.50;96388.00;;;;4993833;28;20218;-70
2023/01/28 03:01:16;;;;;;;1.30;1.20;;;;;-0.50;96393.00;;;;4995503;28;20209;-70
2023/01/28 03:03:57;;;;;;;0.90;0.90;;;;;-0.50;96388.00;;;;4996980;28;20186;-69
2023/01/28 03:06:31;;;;;;;1.57;1.47;;;;;-0.50;96394.00;;;;4996700;28;20191;-69
2023/01/28 03:37:02;;;;;;;3.57;2.33;;;;;-0.50;96398.00;;;;4996171;28;20207;-70
2023/01/28 03:39:31;;;;;;;1.47;1.40;;;;;-0.50;96408.00;;;;4996106;28;20711;-70
2023/01/28 03:42:04;;;;;;;4.20;2.03;;;;;-0.50;96407.00;;;;4996773;28;20194;-70
2023/01/28 03:44:51;;;;;;;1.30;1.30;;;;;-0.40;96407.00;;;;4995956;28;20187;-69
2023/01/28 03:47:19;;;;;;;1.17;1.13;;;;;-0.50;96412.00;;;;4996262;28;20258;-69
2023/01/28 03:49:49;;;;;;;0.83;0.83;;;;;-0.50;96411.00;;;;4996634;28;20273;-69
2023/01/28 03:52:18;;;;;;;1.73;1.63;;;;;-0.50;96413.00;;;;4996246;28;20174;-69
2023/01/28 03:54:47;;;;;;;1.80;1.70;;;;;-0.50;96420.00;;;;4995776;28;20194;-70
2023/01/28 03:57:15;;;;;;;1.10;1.10;;;;;-0.50;96413.00;;;;4995871;28;20580;-69
2023/01/28 03:59:43;;;;;;;1.77;1.67;;;;;-0.50;96418.00;;;;4995658;28;20218;-69
2023/01/28 04:02:11;;;;;;;1.00;1.00;;;;;-0.50;96414.00;;;;4995610;28;20614;-69
2023/01/28 04:04:39;;;;;;;0.83;0.83;;;;;-0.50;96412.00;;;;4995539;28;20199;-70
2023/01/28 04:07:10;;;;;;;3.20;2.43;;;;;-0.50;96418.00;;;;4996081;28;20252;-70
2023/01/28 04:09:38;;;;;;;1.77;1.67;;;;;-0.50;96420.00;;;;4995895;28;20254;-70
2023/01/28 04:12:06;;;;;;;1.70;1.60;;;;;-0.40;96410.00;;;;4995372;28;20209;-70
2023/01/28 04:14:33;;;;;;;1.63;1.53;;;;;-0.40;96411.00;;;;4996056;28;20257;-70
2023/01/28 04:17:01;;;;;;;1.13;1.13;;;;;-0.40;96417.00;;;;4995831;28;20227;-69
2023/01/28 04:19:30;;;;;;;1.97;1.87;;;;;-0.40;96416.00;;;;4995208;28;20218;-70
2023/01/28 04:21:57;;;;;;;1.23;1.20;;;;;-0.40;96413.00;;;;4995576;28;20683;-69
2023/01/28 04:24:26;;;;;;;1.30;1.20;;;;;-0.40;96430.00;;;;4995169;28;20654;-69
2023/01/28 04:26:54;;;;;;;3.00;1.53;;;;;-0.40;96428.00;;;;4995157;28;20253;-70
2023/01/28 04:29:21;;;;;;;1.53;1.43;;;;;-0.40;96433.00;;;;4994851;28;20231;-70
2023/01/28 04:31:48;;;;;;;1.00;1.00;;;;;-0.40;96433.00;;;;4995312;28;20194;-70
2023/01/28 04:34:16;;;;;;;3.30;1.97;;;;;-0.40;96429.00;;;;4995282;28;20254;-70
2023/01/28 04:36:44;;;;;;;1.37;1.37;;;;;-0.50;96430.00;;;;4994849;28;20281;-69
2023/01/28 04:39:11;;;;;;;1.60;1.50;;;;;-0.50;96441.00;;;;4994937;28;20241;-70
2023/01/28 04:41:40;;;;;;;1.20;1.20;;;;;-0.50;96426.00;;;;4994883;28;20190;-69
2023/01/28 04:44:07;;;;;;;0.93;0.93;;;;;-0.50;96435.00;;;;4994800;28;20198;-70
2023/01/28 04:46:35;;;;;;;1.43;1.20;;;;;-0.50;96439.00;;;;4994784;28;20194;-70
2023/01/28 04:49:03;;;;;;;1.20;1.20;;;;;-0.50;96434.00;;;;4994642;28;20226;-69
2023/01/28 04:51:30;;;;;;;1.27;1.20;;;;;-0.40;96437.00;;;;4994706;28;20653;-70
2023/01/28 04:53:57;;;;;;;0.70;0.70;;;;;-0.40;96428.00;;;;4994876;28;20250;-70
2023/01/28 04:56:25;;;;;;;0.93;0.93;;;;;-0.40;96443.00;;;;4994591;28;20202;-69
2023/01/28 04:58:54;;;;;;;1.40;1.40;;;;;-0.40;96441.00;;;;4994401;28;20222;-70
2023/01/28 05:01:21;;;;;;;1.40;1.37;;;;;-0.40;96449.00;;;;4994871;28;20194;-69
2023/01/28 05:03:48;;;;;;;1.33;1.33;;;;;-0.40;96450.00;;;;4994733;28;20198;-72
2023/01/28 05:06:16;;;;;;;1.40;1.33;;;;;-0.30;96450.00;;;;4994650;28;20602;-69
2023/01/28 05:08:45;;;;;;;1.00;1.00;;;;;-0.30;96448.00;;;;4994611;28;20215;-68
2023/01/28 05:11:12;;;;;;;1.33;1.33;;;;;-0.30;96445.00;;;;4994746;28;20196;-69
2023/01/28 05:13:40;;;;;;;1.70;1.60;;;;;-0.30;96453.00;;;;4994549;28;20656;-69
2023/01/28 05:16:09;;;;;;;4.67;1.63;;;;;-0.20;96452.00;;;;4994523;28;20201;-68
2023/01/28 05:18:36;;;;;;;1.10;1.10;;;;;-0.30;96450.00;;;;4994377;28;20230;-68
2023/01/28 05:21:04;;;;;;;1.10;1.10;;;;;-0.30;96452.00;;;;4994204;28;20190;-68
2023/01/28 05:23:31;;;;;;;1.60;1.50;;;;;-0.30;96451.00;;;;4994391;28;20202;-68
2023/01/28 05:25:59;;;;;;;1.50;1.40;;;;;-0.20;96454.00;;;;4994688;28;20249;-68
2023/01/28 05:28:26;;;;;;;1.47;1.47;;;;;-0.30;96440.00;;;;4994177;28;20703;-69
2023/01/28 05:30:53;;;;;;;1.33;1.23;;;;;-0.30;96451.00;;;;4994092;28;20195;-69
2023/01/28 05:33:22;;;;;;;1.37;1.10;;;;;-0.20;96442.00;;;;4994473;28;20196;-69
2023/01/28 05:35:49;;;;;;;1.30;1.30;;;;;-0.20;96450.00;;;;4994427;28;20654;-69
2023/01/28 05:38:17;;;;;;;1.53;1.43;;;;;-0.30;96454.00;;;;4992524;28;20311;-71
2023/01/28 05:40:44;;;;;;;2.13;1.93;;;;;-0.20;96457.00;;;;4993836;28;20658;-69
2023/01/28 05:43:12;;;;;;;1.60;1.50;;;;;-0.20;96455.00;;;;4994429;28;20207;-70
2023/01/28 05:45:39;;;;;;;1.50;1.40;;;;;-0.20;96458.00;;;;4993858;28;20198;-70
2023/01/28 05:48:07;;;;;;;1.50;1.40;;;;;-0.20;96458.00;;;;4993773;28;20272;-69
2023/01/28 05:50:36;;;;;;;1.77;1.67;;;;;-0.30;96462.00;;;;4993815;28;20249;-69
2023/01/28 05:53:06;;;;;;;2.03;1.93;;;;;-0.30;96472.00;;;;4993813;28;20199;-69
2023/01/28 05:55:34;;;;;;;0.80;0.80;;;;;-0.30;96468.00;;;;4994036;28;20249;-70
2023/01/28 05:58:01;;;;;;;2.03;1.83;;;;;-0.30;96475.00;;;;4992332;28;20223;-69
2023/01/28 06:00:28;;;;;;;5.57;1.77;;;;;-0.40;96478.00;;;;4993934;28;20206;-69
2023/01/28 06:02:56;;;;;;;1.37;1.37;;;;;-0.40;96475.00;;;;4993695;28;20195;-69
2023/01/28 06:05:23;;;;;;;1.87;1.77;;;;;-0.30;96477.00;;;;4993696;28;20207;-69
2023/01/28 06:07:52;;;;;;;2.93;2.37;;;;;-0.30;96488.00;;;;4993883;28;20274;-69
2023/01/28 06:10:19;;;;;;;1.67;1.57;;;;;-0.30;96488.00;;;;4994188;28;20195;-69
2023/01/28 06:12:47;;;;;;;1.90;1.80;;;;;-0.30;96484.00;;;;4993873;28;20199;-69
2023/01/28 06:15:14;;;;;;;3.43;3.13;;;;;-0.30;96493.00;;;;4993830;28;20245;-69
2023/01/28 06:17:42;;;;;;;2.23;2.00;;;;;-0.30;96499.00;;;;4993424;28;20717;-70
2023/01/28 06:20:10;;;;;;;1.03;1.03;;;;;-0.30;96496.00;;;;4993504;28;20246;-70
2023/01/28 06:22:38;;;;;;;2.03;1.93;;;;;-0.30;96489.00;;;;4993696;28;20198;-69
2023/01/28 06:25:08;;;;;;;1.30;1.20;;;;;-0.30;96513.00;;;;4993539;28;20199;-70
2023/01/28 06:27:35;;;;;;;1.83;1.73;;;;;-0.30;96505.00;;;;4993422;28;20187;-70
2023/01/28 06:30:03;;;;;;;1.73;1.63;;;;;-0.30;96506.00;;;;4993600;28;20262;-70
2023/01/28 06:32:31;;;;;;;3.03;1.87;;;;;-0.30;96509.00;;;;4993678;28;20195;-70
2023/01/28 06:34:58;;;;;;;1.20;1.20;;;;;-0.20;96508.00;;;;4993689;28;20222;-68
2023/01/28 06:37:26;;;;;;;1.23;1.23;;;;;-0.30;96511.00;;;;4997121;28;20218;-68
2023/01/28 06:39:53;;;;;;;2.57;1.30;;;;;-0.40;96508.00;;;;4997310;28;20319;-70
2023/01/28 06:42:22;;;;;;;1.67;1.57;;;;;-0.40;96514.00;;;;4997100;28;20201;-70
2023/01/28 06:44:50;;;;;;;2.80;2.03;;;;;-0.40;96518.00;;;;4996738;28;20217;-68
2023/01/28 06:47:17;;;;;;;1.83;1.73;;;;;-0.30;96525.00;;;;4997090;28;20190;-70
2023/01/28 06:49:44;;;;;;;4.47;2.03;;;;;-0.30;96525.00;;;;4996832;28;20220;-69
2023/01/28 06:52:12;;;;;;;1.20;1.20;;;;;-0.40;96522.00;;;;4996894;28;20191;-70
2023/01/28 06:54:39;;;;;;;2.67;1.83;;;;;-0.40;96526.00;;;;4997454;28;20210;-70
2023/01/28 06:57:07;;;;;;;1.87;1.67;;;;;-0.30;96524.00;;;;4996826;28;20736;-70
2023/01/28 06:59:35;;;;;;;1.40;1.40;;;;;-0.30;96525.00;;;;4996592;28;20277;-68
2023/01/28 07:02:03;;;;;;;1.70;1.60;;;;;-0.30;96522.00;;;;4996909;28;20206;-69
2023/01/28 07:04:31;;;;;;;2.43;2.13;;;;;-0.40;96524.00;;;;4997379;28;20662;-70
2023/01/28 07:06:58;;;;;;;2.47;1.93;;;;;-0.30;96523.00;;;;4996951;28;20249;-69
2023/01/28 07:09:26;;;;;;;1.50;1.43;;;;;-0.40;96526.00;;;;4996416;28;20215;-68
2023/01/28 07:11:53;;;;;;;1.80;1.47;;;;;-0.40;96523.00;;;;4996697;28;20206;-69
2023/01/28 07:14:21;;;;;;;3.03;1.23;;;;;-0.20;96524.00;;;;4996835;28;20260;-69
2023/01/28 07:16:49;;;;;;;1.53;1.50;;;;;-0.20;96524.00;;;;4996614;28;20658;-70
2023/01/28 07:19:17;;;;;;;1.20;1.20;;;;;-0.20;96517.00;;;;4995293;28;20281;-70
2023/01/28 07:21:44;;;;;;;1.43;1.33;;;;;-0.20;96538.00;;;;4996456;28;20659;-70
2023/01/28 07:24:12;;;;;;;1.93;1.83;;;;;-0.30;96545.00;;;;4996968;28;20538;-70
2023/01/28 07:26:39;;;;;;;1.40;1.40;;;;;-0.20;96541.00;;;;4996313;28;20213;-69
2023/01/28 07:29:07;;;;;;;2.67;2.47;;;;;-0.20;96550.00;;;;4996307;28;20294;-69
2023/01/28 07:31:34;;;;;;;1.77;1.67;;;;;-0.30;96544.00;;;;4995110;28;20719;-69
2023/01/28 07:34:03;;;;;;;1.93;1.83;;;;;-0.20;96552.00;;;;4996351;28;20565;-70
2023/01/28 07:36:30;;;;;;;1.53;1.47;;;;;-0.20;96546.00;;;;4996435;28;20206;-70
2023/01/28 07:38:58;;;;;;;1.47;1.37;;;;;-0.10;96552.00;;;;4995995;28;20230;-70
2023/01/28 07:41:26;;;;;;;1.93;1.83;;;;;-0.10;96540.00;;;;4994711;28;20199;-70
2023/01/28 07:43:54;;;;;;;2.23;1.67;;;;;-0.10;96556.00;;;;4996702;28;20275;-71
2023/01/28 07:46:22;;;;;;;17.47;2.67;;;;;-0.10;96549.00;;;;4995976;28;20685;-69
2023/01/28 07:48:53;;;;;;;3.03;2.77;;;;;0.10;96547.00;;;;4996646;28;20246;-69
2023/01/28 07:51:25;;;;;;;1.63;1.57;;;;;0.00;96560.00;;;;4996007;28;20186;-69
2023/01/28 07:53:53;;;;;;;1.43;1.40;;;;;0.10;96560.00;;;;4995773;28;20198;-70
2023/01/28 07:56:20;;;;;;;1.07;1.07;;;;;0.00;96563.00;;;;4996063;28;20226;-69
2023/01/28 07:58:50;;;;;;;1.93;1.63;;;;;0.00;96568.00;;;;4994285;28;20761;-70
2023/01/28 08:01:18;;;;;;;1.60;1.50;;;;;0.10;96576.00;;;;4995544;28;20258;-69
2023/01/28 08:03:45;;;;;;;1.27;1.27;;;;;0.10;96583.00;;;;4995530;28;20221;-70
2023/01/28 08:06:13;;;;;;;2.13;2.03;;;;;0.10;96575.00;;;;4995776;28;20199;-69
2023/01/28 08:08:42;;;;;;;2.47;2.07;;;;;0.10;96587.00;;;;4995422;28;20211;-70
2023/01/28 08:11:10;;;;;;;1.23;1.23;;;;;0.10;96580.00;;;;4996183;28;20199;-70
2023/01/28 08:13:37;;;;;;;1.93;1.83;;;;;0.10;96579.00;;;;4995406;28;20255;-70
2023/01/28 08:16:06;;;;;;;2.53;1.80;;;;;0.20;96572.00;;;;4995808;28;20196;-70
2023/01/28 08:18:33;;;;;;;1.73;1.60;;;;;0.30;96584.00;;;;4995183;28;20231;-69
2023/01/28 08:21:01;;;;;;;4.03;2.23;;;;;0.40;96584.00;;;;4995181;28;20230;-69
2023/01/28 08:23:29;;;;;;;2.30;1.03;;;;;0.40;96590.00;;;;4995256;28;20662;-69
2023/01/28 08:25:59;;;;;;;2.37;2.20;;;;;0.40;96582.00;;;;4995696;28;20202;-68
2023/01/28 08:28:26;;;;;;;2.00;1.90;;;;;0.40;96582.00;;;;4993838;28;20228;-70
2023/01/28 08:30:55;;;;;;;1.30;1.20;;;;;0.50;96590.00;;;;5032048;22;20317;-60
2023/01/28 08:33:22;;;;;;;1.27;1.27;;;;;0.40;96586.00;;;;5034374;28;20197;-60
2023/01/28 08:35:49;;;;;;;2.47;1.93;;;;;0.40;96590.00;;;;5034268;28;20716;-60
2023/01/28 08:38:19;;;;;;;3.33;1.97;;;;;0.40;96591.00;;;;5034619;28;20275;-60
2023/01/28 08:40:46;;;;;;;1.90;1.77;;;;;0.40;96598.00;;;;5034287;28;20728;-59
2023/01/28 08:43:15;;;;;;;3.50;2.37;;;;;0.50;96593.00;;;;5034131;28;20204;-59
2023/01/28 08:45:43;;;;;;;3.47;3.17;;;;;0.40;96588.00;;;;5034096;28;20655;-60
2023/01/28 08:48:14;;;;;;;3.10;2.17;;;;;0.50;96591.00;;;;5035107;28;20193;-58
2023/01/28 08:50:42;;;;;;;1.70;1.60;;;;;0.50;96596.00;;;;5034252;28;20728;-60
2023/01/28 08:53:12;;;;;;;3.20;2.93;;;;;0.40;96589.00;;;;5034171;28;20195;-58
2023/01/28 08:55:40;;;;;;;3.00;2.53;;;;;0.50;96593.00;;;;5034270;28;20184;-59
2023/01/28 08:58:11;;;;;;;2.10;1.70;;;;;0.50;96603.00;;;;5032376;28;20202;-59
2023/01/28 09:00:40;;;;;;;2.53;2.43;;;;;0.50;96597.00;;;;5034152;28;20219;-59
2023/01/28 09:03:08;;;;;;;1.83;1.73;;;;;0.60;96595.00;;;;5032488;28;20194;-59
2023/01/28 09:05:36;;;;;;;2.03;1.93;;;;;0.50;96595.00;;;;5034080;28;20195;-59
2023/01/28 09:08:05;;;;;;;2.43;2.30;;;;;0.50;96608.00;;;;5034234;28;20195;-59
2023/01/28 09:10:33;;;;;;;1.80;1.70;;;;;0.60;96603.00;;;;5032397;28;20310;-58
2023/01/28 09:13:04;;;;;;;2.87;2.53;;;;;0.80;96592.00;;;;5033634;28;20199;-60
2023/01/28 09:15:32;;;;;;;1.10;1.10;;;;;0.70;96600.00;;;;5034148;28;20183;-59
2023/01/28 09:18:01;;;;;;;3.17;2.30;;;;;0.60;96602.00;;;;5033608;28;20203;-59
2023/01/28 09:20:28;;;;;;;2.57;2.37;;;;;0.70;96611.00;;;;5033544;28;20250;-60
2023/01/28 09:22:56;;;;;;;1.03;1.03;;;;;0.70;96611.00;;;;5033499;28;20196;-59
2023/01/28 09:25:23;;;;;;;2.53;2.33;;;;;0.80;96606.00;;;;5033490;28;20574;-59
2023/01/28 09:27:51;;;;;;;2.80;2.17;;;;;1.00;96605.00;;;;5034053;28;20195;-60
2023/01/28 09:30:18;;;;;;;2.10;1.73;;;;;1.00;96608.00;;;;5039587;28;20218;-58
2023/01/28 09:32:49;;;;;;;1.97;1.87;;;;;1.10;96616.00;;;;5035379;28;20199;-60
2023/01/28 09:35:18;;;;;;;2.50;2.30;;;;;1.00;96626.00;;;;5053836;28;20619;-59
2023/01/28 09:37:45;;;;;;;1.40;1.40;;;;;1.00;96632.00;;;;5053835;28;20194;-58
2023/01/28 09:40:17;;;;;;;1.87;1.77;;;;;1.00;96637.00;;;;5053445;28;20227;-59
2023/01/28 09:42:59;;;;;;;2.97;2.77;;;;;1.00;96631.00;;;;5052999;28;20187;-60
2023/01/28 09:45:33;;;;;;;1.83;1.73;;;;;1.10;96633.00;;;;5053123;28;20179;-60
2023/01/28 09:48:03;;;;;;;1.37;1.27;;;;;1.20;96629.00;;;;5053870;28;20576;-59
2023/01/28 09:50:35;;;;;;;1.87;1.77;;;;;1.20;96636.00;;;;5053182;28;20268;-59
2023/01/28 09:53:07;;;;;;;1.73;1.63;;;;;1.30;96630.00;;;;5053703;28;20191;-60
2023/01/28 09:55:37;;;;;;;1.43;1.40;;;;;1.40;96638.00;;;;5053476;28;20187;-58
2023/01/28 09:58:10;;;;;;;1.67;1.57;;;;;1.50;96637.00;;;;5053473;28;20198;-59
2023/01/28 10:00:42;;;;;;;2.67;1.93;;;;;1.50;96639.00;;;;5053131;28;20215;-58
2023/01/28 10:03:28;;;;;;;2.53;2.00;;;;;1.50;96634.00;;;;5052921;28;20176;-59
2023/01/28 10:06:07;;;;;;;5.03;2.57;;;;;1.40;96648.00;;;;5053384;28;20194;-59
2023/01/28 10:08:59;;;;;;;1.77;1.67;;;;;1.40;96648.00;;;;5052805;28;20193;-59
2023/01/28 10:11:39;;;;;;;2.33;2.13;;;;;1.50;96636.00;;;;5056892;28;20210;-59
2023/01/28 10:14:13;;;;;;;1.90;1.80;;;;;1.50;96642.00;;;;5057281;28;20252;-59
2023/01/28 10:16:45;;;;;;;3.77;2.20;;;;;1.40;96635.00;;;;5057071;28;20187;-59
2023/01/28 10:19:19;;;;;;;1.83;1.73;;;;;1.50;96634.00;;;;5057687;28;20217;-59
2023/01/28 10:21:51;;;;;;;1.80;1.70;;;;;1.60;96623.00;;;;5057092;28;20191;-59
2023/01/28 10:24:24;;;;;;;1.20;1.20;;;;;1.80;96626.00;;;;5056646;28;20635;-59
2023/01/28 10:26:53;;;;;;;1.70;1.63;;;;;1.90;96628.00;;;;5056735;28;20191;-60
2023/01/28 10:29:22;;;;;;;3.33;2.73;;;;;1.90;96627.00;;;;5056651;28;20194;-59
2023/01/28 10:31:53;;;;;;;2.00;1.90;;;;;1.80;96624.00;;;;5056510;28;20257;-59
2023/01/28 10:34:21;;;;;;;1.87;1.77;;;;;1.70;96621.00;;;;5056582;28;20237;-59
2023/01/28 10:36:51;;;;;;;7.10;2.40;;;;;1.60;96617.00;;;;5056964;28;20192;-59
2023/01/28 10:39:22;;;;;;;1.10;1.10;;;;;1.30;96627.00;;;;5056898;28;20264;-58
2023/01/28 10:41:49;;;;;;;2.23;2.10;;;;;1.20;96616.00;;;;5056488;28;20221;-58
2023/01/28 10:44:21;;;;;;;1.60;1.50;;;;;1.00;96624.00;;;;5056612;28;20199;-59
2023/01/28 10:46:51;;;;;;;2.00;1.63;;;;;1.10;96619.00;;;;5056626;28;20241;-59
2023/01/28 10:49:24;;;;;;;2.10;1.90;;;;;1.00;96620.00;;;;5038798;28;20277;-58
2023/01/28 10:51:52;;;;;;;2.80;2.60;;;;;0.90;96620.00;;;;5056595;28;20626;-59
2023/01/28 10:54:21;;;;;;;2.23;1.77;;;;;1.00;96624.00;;;;5056299;28;20195;-58
2023/01/28 10:56:51;;;;;;;2.70;2.50;;;;;0.90;96633.00;;;;5055942;28;20203;-58
2023/01/28 10:59:22;;;;;;;4.07;3.67;;;;;0.90;96631.00;;;;5056497;28;20214;-58
2023/01/28 11:01:52;;;;;;;4.43;2.47;;;;;0.90;96631.00;;;;5055744;28;20190;-58
2023/01/28 11:04:24;;;;;;;3.37;1.93;;;;;0.90;96618.00;;;;5056004;28;20194;-58
2023/01/28 11:06:59;;;;;;;2.57;2.37;;;;;1.00;96629.00;;;;5056117;28;20190;-58
2023/01/28 11:09:30;;;;;;;3.77;2.90;;;;;1.00;96623.00;;;;5056044;28;20189;-59
2023/01/28 11:11:57;;;;;;;2.43;2.33;;;;;1.10;96623.00;;;;5056573;28;20191;-59
2023/01/28 11:14:26;;;;;;;2.20;2.10;;;;;1.20;96630.00;;;;5056490;28;20210;-58
2023/01/28 11:16:57;;;;;;;2.40;2.23;;;;;1.30;96627.00;;;;5055768;28;20206;-59
2023/01/28 11:19:31;;;;;;;2.47;2.27;;;;;1.30;96613.00;;;;5055899;28;20206;-60
2023/01/28 11:22:00;;;;;;;2.33;2.20;;;;;1.30;96622.00;;;;5055323;28;20188;-59
2023/01/28 11:24:30;;;;;;;4.47;3.13;;;;;1.30;96635.00;;;;5055611;28;20203;-59
2023/01/28 11:27:01;;;;;;;2.30;2.10;;;;;1.40;96636.00;;;;5055782;28;20554;-61
2023/01/28 11:29:32;;;;;;;3.13;2.00;;;;;1.40;96629.00;;;;5055808;28;20195;-61
2023/01/28 11:32:00;;;;;;;2.27;2.13;;;;;1.40;96619.00;;;;5055931;28;20628;-59
2023/01/28 11:34:30;;;;;;;3.80;2.70;;;;;1.70;96620.00;;;;5055714;28;20556;-59
2023/01/28 11:37:05;;;;;;;0.97;0.97;;;;;1.70;96625.00;;;;5055515;28;20210;-60
2023/01/28 11:39:32;;;;;;;1.73;1.63;;;;;1.60;96628.00;;;;5053795;28;20232;-59
2023/01/28 11:42:15;;;;;;;2.20;2.10;;;;;1.70;96631.00;;;;5056005;28;20191;-59
2023/01/28 11:44:43;;;;;;;1.90;1.80;;;;;1.70;96620.00;;;;5055587;28;20187;-60
2023/01/28 11:47:40;;;;;;;1.07;1.07;;;;;1.70;96614.00;;;;5055160;28;20195;-59
2023/01/28 11:50:31;;;;;;;2.03;1.93;;;;;1.70;96626.00;;;;5049773;28;20231;-59
2023/01/28 11:53:20;;;;;;;2.17;1.97;;;;;1.60;96620.00;;;;5055678;28;20195;-60
2023/01/28 11:56:06;;;;;;;1.40;1.40;;;;;1.60;96628.00;;;;5054966;28;20207;-59
2023/01/28 11:58:45;;;;;;;2.20;2.07;;;;;1.40;96633.00;;;;5055626;28;20195;-59
2023/01/28 12:01:20;;;;;;;3.13;2.83;;;;;1.50;96621.00;;;;5055268;28;20226;-59
2023/01/28 12:04:21;;;;;;;1.57;1.47;;;;;1.60;96627.00;;;;5055373;28;20241;-59
2023/01/28 12:07:23;;;;;;;4.23;1.90;;;;;1.50;96623.00;;;;5054773;28;20183;-59
2023/01/28 12:09:58;;;;;;;1.80;1.70;;;;;1.40;96623.00;;;;5054747;28;20681;-59
2023/01/28 12:12:43;;;;;;;1.90;1.80;;;;;1.40;96625.00;;;;5055462;28;20626;-59
2023/01/28 12:15:45;;;;;;;1.10;1.10;;;;;1.30;96629.00;;;;5037584;28;20204;-58
2023/01/28 12:18:27;;;;;;;1.47;1.37;;;;;1.20;96632.00;;;;5054592;28;20201;-59
2023/01/28 12:21:05;;;;;;;1.57;1.50;;;;;1.20;96631.00;;;;5054618;28;20288;-59
2023/01/28 12:23:55;;;;;;;2.47;1.83;;;;;1.30;96620.00;;;;5055252;28;20273;-59
2023/01/28 12:26:36;;;;;;;2.93;2.63;;;;;1.20;96628.00;;;;5055044;28;20191;-60
2023/01/28 12:29:18;;;;;;;2.33;2.13;;;;;1.20;96637.00;;;;5054775;28;20187;-59
2023/01/28 12:32:02;;;;;;;4.67;2.73;;;;;1.20;96636.00;;;;5054666;28;20777;-59
2023/01/28 12:34:52;;;;;;;2.50;2.30;;;;;1.20;96628.00;;;;5053983;28;20247;-59
2023/01/28 12:37:26;;;;;;;3.17;2.07;;;;;1.10;96638.00;;;;5054733;28;20555;-60
2023/01/28 12:40:11;;;;;;;1.53;1.43;;;;;1.20;96637.00;;;;5036341;28;20715;-60
2023/01/28 12:42:45;;;;;;;3.97;2.80;;;;;1.10;96638.00;;;;5054620;28;20183;-59
2023/01/28 12:45:17;;;;;;;2.57;1.60;;;;;1.00;96639.00;;;;5054416;28;20189;-59
2023/01/28 12:47:50;;;;;;;1.90;1.80;;;;;1.10;96627.00;;;;5053994;28;20187;-60
2023/01/28 12:50:22;;;;;;;1.83;1.73;;;;;1.10;96633.00;;;;5054122;28;20219;-60
2023/01/28 12:52:54;;;;;;;1.73;1.63;;;;;1.10;96618.00;;;;5054049;28;20189;-60
2023/01/28 12:55:33;;;;;;;2.37;2.23;;;;;1.10;96618.00;;;;5054249;28;20184;-59
2023/01/28 12:58:03;;;;;;;3.27;2.90;;;;;1.00;96624.00;;;;5053988;28;20177;-60
2023/01/28 13:00:34;;;;;;;4.00;3.10;;;;;1.10;96618.00;;;;5053701;28;20223;-59
2023/01/28 13:03:11;;;;;;;2.07;1.87;;;;;1.00;96623.00;;;;5054117;28;20183;-60
2023/01/28 13:05:44;;;;;;;3.27;2.43;;;;;1.00;96612.00;;;;5053809;28;20181;-59
2023/01/28 13:08:15;;;;;;;2.17;2.07;;;;;1.00;96625.00;;;;5053972;28;20185;-59
2023/01/28 13:10:44;;;;;;;3.53;3.07;;;;;1.00;96615.00;;;;5053676;28;20214;-60